LESTLEBB

Guest
Details From LEST - Santiago
To LEBB - Bilbao
Flight Number -
Tags Generated
Created
Modified
Stats Distance 242 nm / 447 km
Max Altitude 0 ft / 0 m
Waypoints 3
Social Downloads 0
Likes 0
Share VATSIM

Download

Looking for another format? Having issues loading an existing format? Contact us
Advertisement - Login to hide

Notes

Generated

Route

LEST NURVI LEBB

ID Type Via Altitude Latitude Longitude Leg Dist Tot Dist Heading (true) Name
O LEST APT - 0 ft / 0 m 42.91177˚ -8.42043˚ - 0 nm - -
NURVI FIX - 0 ft / 0 m 43.28891˚ -3.31685˚ 224 nm 224 nm 82° / 86° -
O LEBB APT - 0 ft / 0 m 43.30335˚ -2.93703˚ 16 nm 241 nm 87° / 87° -

Altitude Profile

Advertisement - Login to hide

Weather


0- 5 10 15 20 25 30 35+ Temperature / ° C

Clouds and Precipitation
Forecast for 2017-12-17 12:00 UTC. Updated an hour ago

Ground ~20,000 ft ~40,000 ft Winds

LEST

Details ICAO LEST (SCQ)
Name Santiago
Region Spain
Timezone Europe/Madrid (UTC+1.0)
Stats Elevation 1,169 ft / 356 m (AMSL)
Location 42.897797° -8.415691°
Runways 1
Magnetic Variation 2.370° W

METAR

LEST 171200Z VRB01KT CAVOK 07/04 Q1033 NOSIG

Decode

TAF

TAF LEST 171100Z 1712/1812 09004KT CAVOK TX11/1715Z TNM01/1807Z PROB40 TEMPO 1802/1809 1500 BCFG

Decode

Departure Runways

ID Width Length Bearing (true) Bearing (mag) Surface Threshold Offset Overrun Length
17 148 ft / 45 m 10,509 ft / 3,203 m 166.04° 168.41° Asphalt 394 ft / 120 m 0 ft / 0 m
35 148 ft / 45 m 10,509 ft / 3,203 m 346.05° 348.42° Asphalt 0 ft / 0 m 197 ft / 60 m

LEBB

Details ICAO LEBB (BIO)
Name Bilbao
Region Spain
Timezone Europe/Madrid (UTC+1.0)
Stats Elevation 137 ft / 42 m (AMSL)
Location 43.301692° -2.917664°
Runways 2
Magnetic Variation 0.628° W

METAR

LEBB 171200Z 00000KT 9999 -RA FEW013 SCT025 BKN040 08/07 Q1033 TEMPO RA

Decode

TAF

TAF LEBB 171100Z 1712/1812 VRB04KT 9999 SCT020 BKN050 TX12/1714Z TN04/1805Z PROB40 TEMPO 1712/1718 28010KT RA

Decode

Destination Runways

ID Width Length Bearing (true) Bearing (mag) Surface Threshold Offset Overrun Length
10 148 ft / 45 m 6,569 ft / 2,002 m 96.66° 97.29° Asphalt 20 ft / 6 m 184 ft / 56 m
12 148 ft / 45 m 8,539 ft / 2,603 m 116.73° 117.36° Asphalt 20 ft / 6 m 197 ft / 60 m
28 148 ft / 45 m 6,569 ft / 2,002 m 276.68° 277.31° Asphalt 23 ft / 7 m 0 ft / 0 m
30 148 ft / 45 m 8,539 ft / 2,603 m 296.75° 297.38° Asphalt 1,509 ft / 460 m 171 ft / 52 m

Approach Navaids

Runway Type Ident Frequency Range Bearing (true) Bearing (mag) Slope Elevation
12 Localiser IBO 111.55 MHz 20 nm / 37 km 116.74° 117.37° - 113 ft / 34 m (AMSL)
12 Glidescope IBO 111.55 MHz 10 nm / 19 km 116.74° 117.37° 3.10° 133 ft / 41 m (AMSL)
12 DME IBO 111.55 MHz 13 nm / 24 km - - - 133 ft / 41 m (AMSL)
30 Localiser IBL 110.30 MHz 20 nm / 37 km 296.74° 297.37° - 106 ft / 32 m (AMSL)
30 Glidescope IBL 110.30 MHz 10 nm / 19 km 296.74° 297.37° 3.40° 133 ft / 41 m (AMSL)
30 DME IBL 110.30 MHz 13 nm / 24 km - - - 132 ft / 40 m (AMSL)

Popular Alternatives